createdAt,value
2023-02-03T00:00:56.128Z,100.00
2023-02-03T00:03:24.424Z,100.00
2023-02-03T00:05:52.880Z,100.00
2023-02-03T00:08:21.842Z,100.00
2023-02-03T00:10:50.039Z,100.00
2023-02-03T00:13:17.884Z,100.00
2023-02-03T00:15:45.982Z,100.00
2023-02-03T00:18:16.359Z,100.00
2023-02-03T00:20:47.740Z,100.00
2023-02-03T00:23:16.111Z,100.00
2023-02-03T00:25:45.071Z,100.00
2023-02-03T00:28:13.619Z,100.00
2023-02-03T00:30:41.534Z,100.00
2023-02-03T00:33:09.532Z,100.00
2023-02-03T00:35:40.819Z,100.00
2023-02-03T00:38:08.869Z,100.00
2023-02-03T00:40:36.934Z,100.00
2023-02-03T00:43:07.419Z,100.00
2023-02-03T00:45:35.439Z,100.00
2023-02-03T00:48:04.080Z,100.00
2023-02-03T00:50:32.138Z,100.00
2023-02-03T00:53:02.002Z,100.00
2023-02-03T00:55:30.233Z,100.00
2023-02-03T00:57:58.061Z,100.00
2023-02-03T01:00:26.116Z,100.00
2023-02-03T01:02:54.712Z,100.00
2023-02-03T01:05:22.823Z,100.00
2023-02-03T01:07:51.036Z,100.00
2023-02-03T01:10:20.897Z,100.00
2023-02-03T01:12:49.260Z,100.00
2023-02-03T01:15:19.061Z,100.00
2023-02-03T01:17:47.297Z,100.00
2023-02-03T01:20:17.041Z,100.00
2023-02-03T01:22:45.321Z,100.00
2023-02-03T01:25:13.147Z,100.00
2023-02-03T01:27:42.966Z,100.00
2023-02-03T01:30:12.660Z,100.00
2023-02-03T01:32:41.538Z,100.00
2023-02-03T01:35:10.968Z,100.00
2023-02-03T01:37:39.472Z,100.00
2023-02-03T01:40:08.832Z,100.00
2023-02-03T01:42:37.196Z,100.00
2023-02-03T01:45:07.910Z,100.00
2023-02-03T01:47:41.334Z,100.00
2023-02-03T01:50:14.944Z,100.00
2023-02-03T01:52:48.272Z,100.00
2023-02-03T01:55:21.330Z,100.00
2023-02-03T01:57:54.422Z,100.00
2023-02-03T02:00:25.736Z,100.00
2023-02-03T02:03:03.066Z,100.00
2023-02-03T02:05:36.247Z,100.00
2023-02-03T02:08:07.685Z,100.00
2023-02-03T02:10:36.645Z,100.00
2023-02-03T02:13:07.317Z,100.00
2023-02-03T02:15:51.752Z,100.00
2023-02-03T02:18:44.232Z,100.00
2023-02-03T02:21:50.433Z,100.00
2023-02-03T02:25:04.935Z,100.00
2023-02-03T02:28:08.502Z,100.00
2023-02-03T02:30:57.852Z,100.00
2023-02-03T02:33:39.187Z,100.00
2023-02-03T02:36:16.169Z,100.00
2023-02-03T02:38:54.055Z,100.00
2023-02-03T02:41:27.545Z,100.00
2023-02-03T02:44:03.525Z,100.00
2023-02-03T02:46:37.532Z,100.00
2023-02-03T02:49:14.226Z,100.00
2023-02-03T02:51:46.569Z,100.00
2023-02-03T02:54:19.789Z,100.00
2023-02-03T02:56:54.177Z,100.00
2023-02-03T02:59:22.817Z,100.00
2023-02-03T03:02:00.904Z,100.00
2023-02-03T03:04:39.755Z,100.00
2023-02-03T03:07:15.050Z,100.00
2023-02-03T03:09:53.604Z,100.00
2023-02-03T03:12:26.311Z,100.00
2023-02-03T03:14:59.087Z,100.00
2023-02-03T03:17:31.600Z,100.00
2023-02-03T03:20:06.234Z,100.00
2023-02-03T03:22:40.028Z,100.00
2023-02-03T03:25:16.032Z,100.00
2023-02-03T03:27:50.331Z,100.00
2023-02-03T03:30:24.169Z,100.00
2023-02-03T03:32:53.004Z,100.00
2023-02-03T03:35:23.968Z,100.00
2023-02-03T03:38:00.033Z,100.00
2023-02-03T03:40:37.871Z,100.00
2023-02-03T03:43:12.836Z,100.00
2023-02-03T03:45:49.495Z,100.00
2023-02-03T03:48:22.296Z,100.00
2023-02-03T03:50:56.955Z,100.00
2023-02-03T03:53:27.313Z,100.00
2023-02-03T03:55:58.286Z,100.00
2023-02-03T03:58:31.464Z,100.00
2023-02-03T04:01:04.467Z,100.00
2023-02-03T04:03:37.146Z,100.00
2023-02-03T04:06:08.295Z,100.00
2023-02-03T04:08:37.460Z,100.00
2023-02-03T04:11:09.563Z,100.00
2023-02-03T04:13:38.143Z,100.00
2023-02-03T04:16:07.379Z,100.00
2023-02-03T04:18:36.092Z,100.00
2023-02-03T04:21:05.232Z,100.00
2023-02-03T04:23:43.834Z,100.00
2023-02-03T04:26:13.150Z,100.00
2023-02-03T04:28:43.492Z,100.00
2023-02-03T04:31:12.181Z,100.00
2023-02-03T04:36:36.913Z,100.00
2023-02-03T04:39:07.415Z,100.00
2023-02-03T04:41:35.926Z,100.00
2023-02-03T04:44:04.028Z,100.00
2023-02-03T04:46:32.557Z,100.00
2023-02-03T04:49:00.560Z,100.00
2023-02-03T04:51:28.675Z,100.00
2023-02-03T04:53:56.672Z,100.00
2023-02-03T04:56:26.188Z,100.00
2023-02-03T04:58:54.254Z,100.00
2023-02-03T05:01:22.190Z,100.00
2023-02-03T05:03:50.361Z,100.00
2023-02-03T05:06:18.581Z,100.00
2023-02-03T05:08:46.762Z,100.00
2023-02-03T05:11:15.016Z,100.00
2023-02-03T05:13:44.614Z,100.00
2023-02-03T05:16:12.713Z,100.00
2023-02-03T05:18:41.551Z,100.00
2023-02-03T05:21:10.716Z,100.00
2023-02-03T05:23:41.753Z,100.00
2023-02-03T05:26:10.224Z,100.00
2023-02-03T05:28:38.554Z,100.00
2023-02-03T05:31:08.517Z,100.00
2023-02-03T05:33:36.696Z,100.00
2023-02-03T05:36:05.086Z,100.00
2023-02-03T05:38:33.270Z,100.00
2023-02-03T05:41:19.393Z,100.00
2023-02-03T05:43:47.581Z,100.00
2023-02-03T05:46:17.438Z,100.00
2023-02-03T05:48:45.615Z,100.00
2023-02-03T05:51:14.924Z,100.00
2023-02-03T05:53:43.281Z,100.00
2023-02-03T05:56:11.486Z,100.00
2023-02-03T05:58:39.598Z,100.00
2023-02-03T06:01:08.012Z,100.00
2023-02-03T06:03:38.125Z,100.00
2023-02-03T06:06:06.310Z,100.00
2023-02-03T06:08:34.580Z,100.00
2023-02-03T06:11:02.961Z,100.00
2023-02-03T06:13:31.463Z,100.00
2023-02-03T06:15:59.749Z,100.00
2023-02-03T06:18:29.749Z,100.00
2023-02-03T06:20:59.307Z,100.00
2023-02-03T06:23:27.939Z,100.00
2023-02-03T06:25:56.799Z,100.00
2023-02-03T06:28:24.895Z,100.00
2023-02-03T06:30:53.445Z,100.00
2023-02-03T06:33:22.488Z,100.00
2023-02-03T06:35:51.109Z,100.00
2023-02-03T06:38:24.885Z,100.00
2023-02-03T06:40:53.930Z,100.00
2023-02-03T06:43:22.536Z,100.00
2023-02-03T06:45:50.637Z,100.00
2023-02-03T06:48:19.154Z,100.00
2023-02-03T06:50:48.838Z,100.00
2023-02-03T06:53:17.601Z,100.00
2023-02-03T06:55:49.478Z,100.00
2023-02-03T06:58:17.455Z,100.00
2023-02-03T07:00:46.205Z,100.00
2023-02-03T07:03:14.827Z,100.00
2023-02-03T07:05:43.702Z,100.00
2023-02-03T07:08:11.781Z,100.00
2023-02-03T07:10:40.053Z,100.00
2023-02-03T07:13:10.063Z,100.00
2023-02-03T07:15:38.207Z,100.00
2023-02-03T07:18:06.406Z,100.00
2023-02-03T07:20:34.452Z,100.00
2023-02-03T07:23:02.617Z,100.00
2023-02-03T07:25:32.168Z,100.00
2023-02-03T07:28:00.266Z,100.00
2023-02-03T07:30:30.896Z,100.00
2023-02-03T07:32:59.144Z,100.00
2023-02-03T07:35:27.527Z,100.00
2023-02-03T07:37:55.702Z,100.00
2023-02-03T07:40:23.904Z,100.00
2023-02-03T07:42:52.151Z,100.00
2023-02-03T07:45:22.690Z,100.00
2023-02-03T07:47:54.727Z,100.00
2023-02-03T07:50:28.269Z,100.00
2023-02-03T07:52:59.755Z,100.00
2023-02-03T07:55:33.860Z,100.00
2023-02-03T07:58:03.416Z,100.00
2023-02-03T08:00:31.664Z,100.00
2023-02-03T08:03:01.668Z,100.00
2023-02-03T08:05:31.361Z,100.00
2023-02-03T08:08:04.654Z,100.00
2023-02-03T08:10:38.039Z,100.00
2023-02-03T08:13:17.612Z,100.00
2023-02-03T08:15:46.724Z,100.00
2023-02-03T08:18:17.193Z,100.00
2023-02-03T08:20:46.051Z,100.00
2023-02-03T08:23:14.164Z,100.00
2023-02-03T08:25:42.469Z,100.00
2023-02-03T08:28:10.771Z,100.00
2023-02-03T08:30:39.526Z,100.00
2023-02-03T08:33:07.708Z,100.00
2023-02-03T08:35:37.095Z,100.00
2023-02-03T08:38:06.089Z,100.00
2023-02-03T08:40:39.193Z,100.00
2023-02-03T08:43:12.278Z,100.00
2023-02-03T08:45:41.317Z,100.00
2023-02-03T08:48:10.779Z,100.00
2023-02-03T08:50:42.935Z,100.00
2023-02-03T08:53:11.049Z,100.00
2023-02-03T08:55:40.622Z,100.00
2023-02-03T08:58:08.838Z,100.00
2023-02-03T09:00:37.136Z,100.00
2023-02-03T09:03:05.454Z,100.00
2023-02-03T09:05:34.754Z,100.00
2023-02-03T09:08:04.911Z,100.00
2023-02-03T09:10:33.099Z,100.00
2023-02-03T09:13:04.330Z,100.00
2023-02-03T09:15:32.567Z,100.00
2023-02-03T09:18:00.693Z,100.00
2023-02-03T09:20:29.541Z,100.00
2023-02-03T09:23:00.861Z,100.00
2023-02-03T09:25:30.227Z,100.00
2023-02-03T09:27:58.317Z,100.00
2023-02-03T09:30:26.990Z,100.00
2023-02-03T09:32:56.816Z,100.00
2023-02-03T09:35:26.978Z,100.00
2023-02-03T09:37:55.166Z,100.00
2023-02-03T09:40:28.778Z,100.00
2023-02-03T09:43:24.104Z,100.00
2023-02-03T09:45:52.348Z,100.00
2023-02-03T09:48:25.342Z,100.00
2023-02-03T09:50:54.724Z,100.00
2023-02-03T09:53:29.364Z,100.00
2023-02-03T09:55:59.437Z,100.00
2023-02-03T09:58:35.825Z,100.00
2023-02-03T10:01:09.437Z,100.00
2023-02-03T10:03:44.234Z,100.00
2023-02-03T10:06:21.150Z,100.00
2023-02-03T10:09:02.437Z,100.00
2023-02-03T10:11:44.965Z,100.00
2023-02-03T10:14:33.937Z,100.00
2023-02-03T10:17:20.088Z,100.00
2023-02-03T10:19:52.251Z,100.00
2023-02-03T10:22:25.930Z,100.00
2023-02-03T10:25:00.343Z,100.00
2023-02-03T10:27:30.213Z,100.00
2023-02-03T10:30:04.746Z,100.00
2023-02-03T10:32:33.938Z,100.00
2023-02-03T10:35:03.064Z,100.00
2023-02-03T10:37:34.309Z,100.00
2023-02-03T10:40:03.630Z,100.00
2023-02-03T10:42:47.423Z,100.00
2023-02-03T10:45:17.119Z,100.00
2023-02-03T10:47:49.477Z,100.00
2023-02-03T10:50:20.513Z,100.00
2023-02-03T10:52:48.878Z,100.00
2023-02-03T10:55:33.152Z,100.00
2023-02-03T10:58:11.876Z,100.00
2023-02-03T11:00:41.639Z,100.00
2023-02-03T11:03:24.361Z,100.00
2023-02-03T11:06:06.251Z,100.00
2023-02-03T11:08:35.750Z,100.00
2023-02-03T11:11:06.338Z,100.00
2023-02-03T11:13:34.778Z,100.00
2023-02-03T11:16:06.994Z,100.00
2023-02-03T11:18:42.714Z,100.00
2023-02-03T11:21:14.185Z,100.00
2023-02-03T11:23:53.381Z,100.00
2023-02-03T11:26:23.956Z,100.00
2023-02-03T11:28:56.505Z,100.00
2023-02-03T11:31:29.585Z,100.00
2023-02-03T11:34:04.539Z,100.00
2023-02-03T11:36:35.194Z,100.00
2023-02-03T11:39:12.141Z,100.00
2023-02-03T11:41:41.420Z,100.00
2023-02-03T11:44:16.615Z,100.00
2023-02-03T11:46:49.753Z,100.00
2023-02-03T11:49:45.412Z,100.00
2023-02-03T11:52:46.876Z,100.00
2023-02-03T11:55:27.040Z,100.00
2023-02-03T11:58:13.118Z,100.00
2023-02-03T12:00:52.100Z,100.00
2023-02-03T12:03:45.303Z,100.00
2023-02-03T12:06:25.575Z,100.00
2023-02-03T12:09:11.703Z,100.00
2023-02-03T12:12:05.438Z,100.00
2023-02-03T12:14:50.541Z,100.00
2023-02-03T12:17:45.830Z,100.00
2023-02-03T12:20:28.437Z,99.21
2023-02-03T12:23:05.098Z,100.00
2023-02-03T12:25:42.296Z,100.00
2023-02-03T12:28:32.930Z,95.04
2023-02-03T12:31:10.045Z,95.29
2023-02-03T12:33:44.508Z,92.51
2023-02-03T12:36:19.128Z,89.54
2023-02-03T12:38:54.463Z,84.96
2023-02-03T12:41:26.746Z,81.35
2023-02-03T12:43:59.741Z,76.31
2023-02-03T12:46:31.880Z,73.36
2023-02-03T12:49:04.248Z,72.82
2023-02-03T12:51:39.971Z,69.69
2023-02-03T12:54:27.172Z,68.16
2023-02-03T12:56:59.322Z,67.42
2023-02-03T12:59:32.714Z,69.29
2023-02-03T13:02:13.798Z,67.64
2023-02-03T13:04:47.905Z,67.09
2023-02-03T13:07:25.766Z,65.66
2023-02-03T13:10:00.036Z,64.28
2023-02-03T13:12:32.629Z,63.53
2023-02-03T13:15:11.609Z,62.48
2023-02-03T13:17:45.719Z,63.44
2023-02-03T13:20:20.175Z,61.97
2023-02-03T13:22:50.475Z,61.37
2023-02-03T13:25:25.706Z,61.09
2023-02-03T13:28:03.783Z,61.46
2023-02-03T13:30:52.487Z,60.08
2023-02-03T13:33:55.594Z,58.86
2023-02-03T13:36:47.756Z,59.09
2023-02-03T13:39:38.096Z,57.19
2023-02-03T13:42:19.574Z,57.63
2023-02-03T13:44:51.669Z,56.28
2023-02-03T13:47:24.243Z,56.72
2023-02-03T13:49:56.804Z,55.98
2023-02-03T13:52:28.258Z,55.57
2023-02-03T13:54:58.771Z,55.71
2023-02-03T13:57:35.558Z,55.60
2023-02-03T14:00:07.208Z,54.51
2023-02-03T14:02:46.688Z,54.95
2023-02-03T14:05:44.731Z,54.98
2023-02-03T14:08:55.119Z,55.05
2023-02-03T14:11:45.510Z,53.97
2023-02-03T14:14:42.399Z,54.07
2023-02-03T14:17:58.527Z,52.66
2023-02-03T14:20:56.119Z,52.33
2023-02-03T14:23:42.215Z,51.89
2023-02-03T14:26:31.517Z,51.24
2023-02-03T14:29:03.028Z,51.33
2023-02-03T14:31:31.620Z,51.88
2023-02-03T14:34:07.847Z,52.62
2023-02-03T14:36:44.271Z,54.23
2023-02-03T14:39:57.914Z,54.12
2023-02-03T14:43:09.518Z,54.57
2023-02-03T14:45:55.927Z,55.15
2023-02-03T14:48:43.962Z,55.01
2023-02-03T14:51:22.619Z,54.87
2023-02-03T14:54:09.276Z,55.03
2023-02-03T14:57:05.719Z,54.28
2023-02-03T14:59:42.449Z,54.78
2023-02-03T15:02:19.126Z,56.13
2023-02-03T15:04:50.361Z,56.21
2023-02-03T15:07:39.418Z,56.59
2023-02-03T15:10:15.988Z,56.06
2023-02-03T15:12:49.805Z,56.00
2023-02-03T15:15:23.218Z,55.58
2023-02-03T15:17:54.409Z,56.24
2023-02-03T15:20:30.493Z,55.21
2023-02-03T15:22:59.018Z,55.41
2023-02-03T15:25:33.036Z,56.04
2023-02-03T15:28:17.064Z,56.28
2023-02-03T15:30:45.618Z,56.68
2023-02-03T15:33:17.792Z,56.81
2023-02-03T15:35:49.423Z,55.83
2023-02-03T15:38:22.024Z,56.72
2023-02-03T15:40:54.609Z,57.63
2023-02-03T15:43:27.394Z,58.60
2023-02-03T15:46:03.436Z,57.91
2023-02-03T15:48:42.210Z,59.36
2023-02-03T15:51:14.670Z,56.98
2023-02-03T15:53:55.204Z,57.29
2023-02-03T15:56:30.619Z,56.66
2023-02-03T15:58:59.868Z,56.99
2023-02-03T16:01:29.227Z,57.43
2023-02-03T16:04:00.397Z,58.10
2023-02-03T16:06:35.922Z,58.06
2023-02-03T16:09:07.010Z,58.86
2023-02-03T16:11:37.182Z,58.36
2023-02-03T16:14:07.855Z,59.81
2023-02-03T16:16:40.094Z,58.42
2023-02-03T16:19:16.001Z,60.17
2023-02-03T16:21:54.881Z,61.15
2023-02-03T16:24:40.740Z,58.91
2023-02-03T16:27:22.455Z,58.67
2023-02-03T16:30:07.742Z,58.24
2023-02-03T16:32:53.653Z,58.39
2023-02-03T16:35:40.705Z,59.56
2023-02-03T16:38:32.693Z,58.34
2023-02-03T16:41:18.536Z,59.00
2023-02-03T16:44:04.692Z,58.74
2023-02-03T16:46:50.024Z,58.89
2023-02-03T16:49:35.741Z,60.34
2023-02-03T16:52:06.514Z,59.11
2023-02-03T16:54:34.455Z,60.35
2023-02-03T16:57:04.033Z,59.91
2023-02-03T16:59:32.096Z,59.75
2023-02-03T17:02:00.220Z,59.12
2023-02-03T17:04:28.394Z,60.06
2023-02-03T17:06:56.707Z,60.35
2023-02-03T17:09:26.142Z,60.50
2023-02-03T17:11:54.323Z,60.00
2023-02-03T17:14:22.325Z,59.86
2023-02-03T17:16:50.694Z,60.59
2023-02-03T17:19:21.270Z,60.25
2023-02-03T17:21:50.493Z,61.44
2023-02-03T17:24:19.601Z,60.08
2023-02-03T17:26:49.160Z,60.46
2023-02-03T17:29:17.310Z,60.21
2023-02-03T17:31:45.206Z,60.24
2023-02-03T17:34:13.379Z,60.29
2023-02-03T17:36:41.289Z,60.53
2023-02-03T17:55:34.019Z,60.55
2023-02-03T17:58:03.988Z,61.86
2023-02-03T18:00:32.477Z,61.80
2023-02-03T18:03:02.383Z,62.21
2023-02-03T18:05:32.491Z,62.90
2023-02-03T18:08:05.964Z,65.60
2023-02-03T18:10:40.252Z,67.27
2023-02-03T18:13:09.857Z,67.55
2023-02-03T18:15:39.497Z,66.30
2023-02-03T18:18:07.996Z,66.34
2023-02-03T18:20:36.197Z,66.41
2023-02-03T18:23:04.761Z,65.91
2023-02-03T18:25:32.707Z,69.01
2023-02-03T18:28:00.952Z,70.45
2023-02-03T18:30:30.477Z,69.76
2023-02-03T18:33:01.975Z,70.13
2023-02-03T18:35:30.261Z,71.23
2023-02-03T18:37:58.350Z,72.83
2023-02-03T18:40:26.567Z,73.45
2023-02-03T18:42:56.276Z,75.05
2023-02-03T18:45:24.358Z,74.06
2023-02-03T18:47:54.018Z,71.40
2023-02-03T18:50:22.163Z,71.87
2023-02-03T18:52:53.965Z,69.67
2023-02-03T18:55:22.011Z,69.47
2023-02-03T18:57:50.193Z,73.04
2023-02-03T19:00:18.369Z,73.38
2023-02-03T19:02:49.684Z,75.89
2023-02-03T19:05:19.075Z,79.62
2023-02-03T19:07:47.086Z,81.95
2023-02-03T19:10:15.234Z,81.31
2023-02-03T19:12:43.232Z,83.17
2023-02-03T19:15:12.124Z,83.83
2023-02-03T19:17:40.265Z,87.90
2023-02-03T19:20:09.972Z,87.02
2023-02-03T19:22:39.331Z,89.03
2023-02-03T19:25:07.867Z,95.60
2023-02-03T19:27:36.235Z,100.00
2023-02-03T19:30:04.349Z,100.00
2023-02-03T19:32:32.578Z,100.00
2023-02-03T19:35:00.461Z,100.00
2023-02-03T19:37:28.568Z,100.00
2023-02-03T19:39:57.854Z,100.00
2023-02-03T19:42:26.008Z,100.00
2023-02-03T19:44:54.102Z,100.00
2023-02-03T19:47:22.174Z,99.69
2023-02-03T19:49:50.292Z,97.98
2023-02-03T19:52:18.318Z,98.71
2023-02-03T19:54:46.480Z,94.10
2023-02-03T19:57:15.790Z,91.92
2023-02-03T19:59:43.811Z,90.29
2023-02-03T20:02:14.629Z,87.20
2023-02-03T20:04:44.184Z,90.12
2023-02-03T20:07:13.338Z,88.13
2023-02-03T20:09:41.304Z,88.11
2023-02-03T20:12:09.808Z,87.28
2023-02-03T20:14:39.320Z,85.46
2023-02-03T20:17:07.793Z,87.69
2023-02-03T20:19:35.871Z,87.43
2023-02-03T20:22:03.900Z,87.25
2023-02-03T20:24:31.888Z,85.28
2023-02-03T20:26:59.819Z,86.98
2023-02-03T20:29:28.062Z,87.16
2023-02-03T20:31:58.615Z,88.97
2023-02-03T20:34:27.490Z,92.53
2023-02-03T20:36:58.520Z,91.18
2023-02-03T20:39:27.134Z,92.18
2023-02-03T20:41:55.650Z,93.99
2023-02-03T20:44:23.523Z,92.22
2023-02-03T20:46:52.919Z,89.89
2023-02-03T20:49:22.447Z,89.45
2023-02-03T20:51:50.985Z,89.63
2023-02-03T20:54:21.240Z,92.16
2023-02-03T20:56:50.306Z,90.45
2023-02-03T20:59:20.374Z,92.19
2023-02-03T21:01:49.225Z,89.48
2023-02-03T21:04:36.363Z,88.47
2023-02-03T21:07:14.077Z,89.00
2023-02-03T21:09:42.132Z,92.52
2023-02-03T21:12:15.740Z,91.91
2023-02-03T21:14:45.982Z,91.44
2023-02-03T21:17:18.238Z,88.90
2023-02-03T21:19:46.228Z,87.81
2023-02-03T21:22:21.874Z,87.55
2023-02-03T21:24:53.017Z,88.18
2023-02-03T21:27:27.436Z,89.07
2023-02-03T21:29:57.587Z,86.74
2023-02-03T21:32:35.277Z,87.34
2023-02-03T21:35:03.407Z,84.08
2023-02-03T21:37:50.962Z,83.67
2023-02-03T21:40:22.718Z,83.08
2023-02-03T21:42:51.920Z,80.08
2023-02-03T21:45:31.004Z,80.95
2023-02-03T21:47:59.790Z,80.31
2023-02-03T21:50:30.622Z,82.57
2023-02-03T21:53:18.843Z,86.46
2023-02-03T21:55:46.895Z,87.20
2023-02-03T21:58:23.763Z,94.01
2023-02-03T22:00:53.506Z,100.00
2023-02-03T22:03:27.250Z,100.00
2023-02-03T22:06:05.904Z,100.00
2023-02-03T22:08:39.093Z,99.38
2023-02-03T22:11:07.078Z,98.08
2023-02-03T22:13:35.650Z,95.48
2023-02-03T22:16:03.941Z,94.05
2023-02-03T22:18:32.424Z,91.81
2023-02-03T22:21:00.592Z,91.93
2023-02-03T22:23:28.520Z,89.79
2023-02-03T22:25:57.864Z,87.49
2023-02-03T22:28:27.019Z,87.77
2023-02-03T22:30:55.218Z,85.41
2023-02-03T22:33:23.089Z,83.08
2023-02-03T22:35:51.045Z,82.47
2023-02-03T22:38:19.023Z,80.70
2023-02-03T22:40:46.996Z,81.68
2023-02-03T22:43:17.133Z,77.78
2023-02-03T22:45:45.294Z,84.05
2023-02-03T22:48:13.262Z,83.06
2023-02-03T22:50:41.454Z,88.53
2023-02-03T22:53:09.540Z,95.22
2023-02-03T22:55:38.628Z,99.15
2023-02-03T22:58:06.670Z,100.00
2023-02-03T23:00:36.025Z,100.00
2023-02-03T23:03:04.952Z,100.00
2023-02-03T23:05:32.855Z,100.00
2023-02-03T23:08:00.975Z,100.00
2023-02-03T23:10:31.876Z,100.00
2023-02-03T23:13:01.474Z,100.00
2023-02-03T23:15:30.050Z,99.51
2023-02-03T23:17:59.490Z,100.00
2023-02-03T23:20:27.415Z,100.00
2023-02-03T23:22:55.399Z,100.00
2023-02-03T23:25:23.487Z,99.02
2023-02-03T23:27:51.627Z,100.00
2023-02-03T23:30:20.067Z,100.00
2023-02-03T23:32:48.087Z,100.00
2023-02-03T23:35:35.204Z,100.00
2023-02-03T23:38:03.183Z,97.82
2023-02-03T23:40:31.441Z,98.23
2023-02-03T23:42:59.587Z,100.00
2023-02-03T23:45:27.707Z,97.89
2023-02-03T23:47:55.629Z,93.49
2023-02-03T23:50:24.874Z,91.25
2023-02-03T23:52:52.757Z,90.00
2023-02-03T23:55:21.940Z,90.25
2023-02-03T23:57:50.207Z,90.70
